createdAt,value
2017-12-15T00:00:44.094Z,82.48
2017-12-15T00:03:12.151Z,82.14
2017-12-15T00:05:40.494Z,81.56
2017-12-15T00:08:08.838Z,81.56
2017-12-15T00:10:37.192Z,81.50
2017-12-15T00:13:05.574Z,79.95
2017-12-15T00:15:33.927Z,81.67
2017-12-15T00:18:02.261Z,81.35
2017-12-15T00:20:30.603Z,81.33
2017-12-15T00:22:58.953Z,81.20
2017-12-15T00:25:27.331Z,80.63
2017-12-15T00:27:55.671Z,82.00
2017-12-15T00:30:24.011Z,82.82
2017-12-15T00:32:52.352Z,82.45
2017-12-15T00:35:20.701Z,80.65
2017-12-15T00:37:49.076Z,81.49
2017-12-15T00:40:17.420Z,82.11
2017-12-15T00:42:45.762Z,80.65
2017-12-15T00:45:14.116Z,81.06
2017-12-15T00:47:42.458Z,79.03
2017-12-15T00:50:10.852Z,80.25
2017-12-15T00:52:39.201Z,80.23
2017-12-15T00:55:07.553Z,79.92
2017-12-15T00:57:36.787Z,79.31
2017-12-15T01:00:05.152Z,78.86
2017-12-15T01:02:33.644Z,81.07
2017-12-15T01:05:01.974Z,80.41
2017-12-15T01:07:30.341Z,83.02
2017-12-15T01:09:58.691Z,83.80
2017-12-15T01:12:27.030Z,81.51
2017-12-15T01:14:55.404Z,82.76
2017-12-15T01:17:23.736Z,82.11
2017-12-15T01:19:52.074Z,82.33
2017-12-15T01:22:20.425Z,81.36
2017-12-15T01:24:48.768Z,78.63
2017-12-15T01:27:17.292Z,78.18
2017-12-15T01:29:45.632Z,78.30
2017-12-15T01:32:13.967Z,78.13
2017-12-15T01:34:42.311Z,76.78
2017-12-15T01:37:10.676Z,76.63
2017-12-15T01:39:39.062Z,77.29
2017-12-15T01:42:07.412Z,78.54
2017-12-15T01:44:35.747Z,80.00
2017-12-15T01:47:04.092Z,81.06
2017-12-15T01:49:32.426Z,79.79
2017-12-15T01:52:00.816Z,81.67
2017-12-15T01:54:29.161Z,79.69
2017-12-15T01:56:57.511Z,79.31
2017-12-15T01:59:25.850Z,78.33
2017-12-15T02:01:54.212Z,78.29
2017-12-15T02:04:22.597Z,79.01
2017-12-15T02:06:50.942Z,78.88
2017-12-15T02:09:19.295Z,79.47
2017-12-15T02:11:47.635Z,80.10
2017-12-15T02:14:15.986Z,81.09
2017-12-15T02:16:44.379Z,80.31
2017-12-15T02:19:12.719Z,80.91
2017-12-15T02:21:41.055Z,80.39
2017-12-15T02:24:09.406Z,80.15
2017-12-15T02:26:37.762Z,81.65
2017-12-15T02:29:06.155Z,84.17
2017-12-15T02:31:34.504Z,82.22
2017-12-15T02:34:02.838Z,80.69
2017-12-15T02:36:31.187Z,79.93
2017-12-15T02:38:59.519Z,80.39
2017-12-15T02:41:27.899Z,79.92
2017-12-15T02:43:56.247Z,80.96
2017-12-15T02:46:24.596Z,81.40
2017-12-15T02:48:52.936Z,80.95
2017-12-15T02:51:21.283Z,80.94
2017-12-15T02:53:49.767Z,80.68
2017-12-15T02:56:18.123Z,80.93
2017-12-15T02:58:46.527Z,80.44
2017-12-15T03:01:14.870Z,79.67
2017-12-15T03:03:43.207Z,80.28
2017-12-15T03:06:11.679Z,79.13
2017-12-15T03:08:40.019Z,77.90
2017-12-15T03:11:08.384Z,77.08
2017-12-15T03:13:36.731Z,77.93
2017-12-15T03:16:05.059Z,78.12
2017-12-15T03:18:33.429Z,76.93
2017-12-15T03:21:01.775Z,78.32
2017-12-15T03:23:30.129Z,79.63
2017-12-15T03:25:58.480Z,78.56
2017-12-15T03:28:26.838Z,79.55
2017-12-15T03:30:55.202Z,80.03
2017-12-15T03:33:23.544Z,81.42
2017-12-15T03:35:51.905Z,79.97
2017-12-15T03:38:20.243Z,79.46
2017-12-15T03:40:48.590Z,80.48
2017-12-15T03:43:16.957Z,79.98
2017-12-15T03:45:46.010Z,78.85
2017-12-15T03:48:14.342Z,78.87
2017-12-15T03:50:42.699Z,78.56
2017-12-15T03:53:11.038Z,79.06
2017-12-15T03:55:39.429Z,78.42
2017-12-15T03:58:07.796Z,77.27
2017-12-15T04:00:38.625Z,77.83
2017-12-15T04:03:06.962Z,79.19
2017-12-15T04:05:35.337Z,78.70
2017-12-15T04:08:03.699Z,78.35
2017-12-15T04:10:32.031Z,77.63
2017-12-15T04:13:00.586Z,79.85
2017-12-15T04:15:28.934Z,78.38
2017-12-15T04:17:57.411Z,77.37
2017-12-15T04:20:25.746Z,76.75
2017-12-15T04:22:54.086Z,77.15
2017-12-15T04:25:22.437Z,77.68
2017-12-15T04:27:50.772Z,79.00
2017-12-15T04:30:19.142Z,78.39
2017-12-15T04:32:47.494Z,79.08
2017-12-15T04:35:15.827Z,78.75
2017-12-15T04:37:44.210Z,77.42
2017-12-15T04:40:12.560Z,76.63
2017-12-15T04:42:40.912Z,78.24
2017-12-15T04:45:09.264Z,75.85
2017-12-15T04:47:37.615Z,77.14
2017-12-15T04:50:05.995Z,76.32
2017-12-15T04:52:34.335Z,77.89
2017-12-15T04:55:02.683Z,77.61
2017-12-15T04:57:31.022Z,76.17
2017-12-15T04:59:59.374Z,76.24
2017-12-15T05:02:27.763Z,73.95
2017-12-15T05:04:56.106Z,73.67
2017-12-15T05:07:24.461Z,74.01
2017-12-15T05:09:52.815Z,76.20
2017-12-15T05:12:21.152Z,76.97
2017-12-15T05:14:49.539Z,76.98
2017-12-15T05:17:17.876Z,77.28
2017-12-15T05:19:46.219Z,76.96
2017-12-15T05:22:14.555Z,77.14
2017-12-15T05:24:42.932Z,76.80
2017-12-15T05:27:11.376Z,76.89
2017-12-15T05:29:39.759Z,77.49
2017-12-15T05:32:08.110Z,77.34
2017-12-15T05:34:36.464Z,78.67
2017-12-15T05:37:04.812Z,78.78
2017-12-15T05:39:33.259Z,77.96
2017-12-15T05:42:01.638Z,77.34
2017-12-15T05:44:30.071Z,76.43
2017-12-15T05:46:58.547Z,78.47
2017-12-15T05:49:26.911Z,76.17
2017-12-15T05:51:55.280Z,75.72
2017-12-15T05:54:23.644Z,75.95
2017-12-15T05:56:51.986Z,76.05
2017-12-15T05:59:20.337Z,76.31
2017-12-15T06:01:48.705Z,75.46
2017-12-15T06:04:17.120Z,76.88
2017-12-15T06:06:45.473Z,77.23
2017-12-15T06:09:13.861Z,78.46
2017-12-15T06:11:42.222Z,75.75
2017-12-15T06:14:10.564Z,75.16
2017-12-15T06:16:38.944Z,76.18
2017-12-15T06:19:07.302Z,76.88
2017-12-15T06:21:35.670Z,76.24
2017-12-15T06:24:04.026Z,77.37
2017-12-15T06:26:32.389Z,76.54
2017-12-15T06:29:00.770Z,76.35
2017-12-15T06:31:29.144Z,74.91
2017-12-15T06:33:57.531Z,75.27
2017-12-15T06:36:25.886Z,75.94
2017-12-15T06:38:54.242Z,75.91
2017-12-15T06:41:22.632Z,76.07
2017-12-15T06:43:51.042Z,76.06
2017-12-15T06:46:19.404Z,77.80
2017-12-15T06:48:47.754Z,78.08
2017-12-15T06:51:16.109Z,78.05
2017-12-15T06:53:44.519Z,78.81
2017-12-15T06:56:12.936Z,79.21
2017-12-15T06:58:41.354Z,76.71
2017-12-15T07:01:09.704Z,77.02
2017-12-15T07:03:38.071Z,76.78
2017-12-15T07:06:06.450Z,75.75
2017-12-15T07:08:34.815Z,76.47
2017-12-15T07:11:03.172Z,75.85
2017-12-15T07:13:31.530Z,75.87
2017-12-15T07:15:59.880Z,76.46
2017-12-15T07:18:28.268Z,77.92
2017-12-15T07:20:56.614Z,78.71
2017-12-15T07:23:24.962Z,79.17
2017-12-15T07:25:53.323Z,78.39
2017-12-15T07:28:21.667Z,79.67
2017-12-15T07:30:50.113Z,77.96
2017-12-15T07:33:18.489Z,77.02
2017-12-15T07:35:46.956Z,77.87
2017-12-15T07:38:15.316Z,75.98
2017-12-15T07:40:43.675Z,77.27
2017-12-15T07:43:12.099Z,74.96
2017-12-15T07:45:40.453Z,74.40
2017-12-15T07:48:08.811Z,76.80
2017-12-15T07:50:37.196Z,76.51
2017-12-15T07:53:05.584Z,77.06
2017-12-15T07:55:33.975Z,78.36
2017-12-15T07:58:02.312Z,77.05
2017-12-15T08:00:30.652Z,76.87
2017-12-15T08:02:59.012Z,75.44
2017-12-15T08:05:27.377Z,74.41
2017-12-15T08:07:55.762Z,76.61
2017-12-15T08:10:24.108Z,76.06
2017-12-15T08:12:52.500Z,74.46
2017-12-15T08:15:20.839Z,72.58
2017-12-15T08:17:49.219Z,71.71
2017-12-15T08:20:17.748Z,73.19
2017-12-15T08:22:46.105Z,71.06
2017-12-15T08:25:14.477Z,72.49
2017-12-15T08:27:42.814Z,72.93
2017-12-15T08:30:11.172Z,71.38
2017-12-15T08:32:39.734Z,71.51
2017-12-15T08:35:08.123Z,70.78
2017-12-15T08:37:36.462Z,71.86
2017-12-15T08:40:04.811Z,73.19
2017-12-15T08:42:33.155Z,71.99
2017-12-15T08:45:01.568Z,70.01
2017-12-15T08:47:29.915Z,70.68
2017-12-15T08:49:58.292Z,70.56
2017-12-15T08:52:26.628Z,69.98
2017-12-15T08:54:54.964Z,70.54
2017-12-15T08:57:23.459Z,71.70
2017-12-15T08:59:51.823Z,71.74
2017-12-15T09:02:20.171Z,70.92
2017-12-15T09:04:48.540Z,71.11
2017-12-15T09:07:16.905Z,70.14
2017-12-15T09:09:45.302Z,71.73
2017-12-15T09:12:13.647Z,73.32
2017-12-15T09:14:42.003Z,72.57
2017-12-15T09:17:10.342Z,72.30
2017-12-15T09:19:38.696Z,71.68
2017-12-15T09:22:07.093Z,72.33
2017-12-15T09:24:35.456Z,73.31
2017-12-15T09:27:03.808Z,71.97
2017-12-15T09:29:32.180Z,74.23
2017-12-15T09:32:00.523Z,73.04
2017-12-15T09:34:29.074Z,72.50
2017-12-15T09:36:57.516Z,70.73
2017-12-15T09:39:25.869Z,71.28
2017-12-15T09:41:54.223Z,71.10
2017-12-15T09:44:22.579Z,69.43
2017-12-15T09:46:50.983Z,69.42
2017-12-15T09:49:19.333Z,67.75
2017-12-15T09:51:47.683Z,65.63
2017-12-15T09:54:16.197Z,66.04
2017-12-15T09:56:44.618Z,66.94
2017-12-15T09:59:13.019Z,66.78
2017-12-15T10:01:41.559Z,66.74
2017-12-15T10:04:09.898Z,66.19
2017-12-15T10:06:38.260Z,66.91
2017-12-15T10:09:06.599Z,67.19
2017-12-15T10:11:35.087Z,68.89
2017-12-15T10:14:03.431Z,69.93
2017-12-15T10:16:31.790Z,69.17
2017-12-15T10:19:00.137Z,69.78
2017-12-15T10:21:28.479Z,68.76
2017-12-15T10:23:56.858Z,68.44
2017-12-15T10:26:25.210Z,66.97
2017-12-15T10:28:53.568Z,67.97
2017-12-15T10:31:21.926Z,68.36
2017-12-15T10:33:50.291Z,69.58
2017-12-15T10:36:18.671Z,69.33
2017-12-15T10:38:47.032Z,70.34
2017-12-15T10:41:15.385Z,69.93
2017-12-15T10:43:43.759Z,68.07
2017-12-15T10:46:12.100Z,66.92
2017-12-15T10:48:40.604Z,68.20
2017-12-15T10:51:08.980Z,70.20
2017-12-15T10:53:37.324Z,67.42
2017-12-15T10:56:05.710Z,68.67
2017-12-15T10:58:34.065Z,68.75
2017-12-15T11:01:02.480Z,68.79
2017-12-15T11:03:30.837Z,69.08
2017-12-15T11:05:59.310Z,68.91
2017-12-15T11:08:27.672Z,68.74
2017-12-15T11:10:56.027Z,68.04
2017-12-15T11:13:24.379Z,67.44
2017-12-15T11:15:52.733Z,68.84
2017-12-15T11:18:21.112Z,68.43
2017-12-15T11:20:49.446Z,68.72
2017-12-15T11:23:17.817Z,69.36
2017-12-15T11:25:46.176Z,69.62
2017-12-15T11:28:14.633Z,68.89
2017-12-15T11:30:43.155Z,67.53
2017-12-15T11:33:11.482Z,66.17
2017-12-15T11:38:07.268Z,66.10
2017-12-15T11:40:35.765Z,67.13
2017-12-15T11:43:04.155Z,68.60
2017-12-15T11:45:32.582Z,67.50
2017-12-15T11:48:00.920Z,66.66
2017-12-15T11:50:29.258Z,66.21
2017-12-15T11:52:57.621Z,64.80
2017-12-15T11:55:26.022Z,64.35
2017-12-15T11:57:54.355Z,64.81
2017-12-15T12:00:22.732Z,64.51
2017-12-15T12:02:51.078Z,63.90
2017-12-15T12:05:19.563Z,63.88
2017-12-15T12:07:47.941Z,63.08
2017-12-15T12:10:16.283Z,63.60
2017-12-15T12:12:44.630Z,62.60
2017-12-15T12:15:12.963Z,62.10
2017-12-15T12:17:41.373Z,60.04
2017-12-15T12:20:09.716Z,60.24
2017-12-15T12:22:38.055Z,60.26
2017-12-15T12:25:06.398Z,58.23
2017-12-15T12:27:34.738Z,55.73
2017-12-15T12:30:03.128Z,54.13
2017-12-15T12:32:31.482Z,52.34
2017-12-15T12:34:59.836Z,51.21
2017-12-15T12:37:28.178Z,52.10
2017-12-15T12:39:56.529Z,52.44
2017-12-15T12:42:24.894Z,52.26
2017-12-15T12:44:53.234Z,48.41
2017-12-15T12:47:21.586Z,45.79
2017-12-15T12:49:49.929Z,45.50
2017-12-15T12:52:18.272Z,45.36
2017-12-15T12:54:46.651Z,44.12
2017-12-15T12:57:14.990Z,44.98
2017-12-15T12:59:43.341Z,43.58
2017-12-15T13:02:11.675Z,44.96
2017-12-15T13:04:40.023Z,46.98
2017-12-15T13:07:08.412Z,48.49
2017-12-15T13:09:36.858Z,47.12
2017-12-15T13:12:06.062Z,46.77
2017-12-15T13:14:34.419Z,48.48
2017-12-15T13:17:02.781Z,50.50
2017-12-15T13:19:31.159Z,51.28
2017-12-15T13:22:00.234Z,52.21
2017-12-15T13:24:28.576Z,54.33
2017-12-15T13:26:56.913Z,55.20
2017-12-15T13:29:25.241Z,56.34
2017-12-15T13:31:53.615Z,58.33
2017-12-15T13:34:21.957Z,59.06
2017-12-15T13:36:50.302Z,57.27
2017-12-15T13:39:18.652Z,60.42
2017-12-15T13:41:47.006Z,63.95
2017-12-15T13:44:15.375Z,63.91
2017-12-15T13:46:43.723Z,64.51
2017-12-15T13:49:12.079Z,65.04
2017-12-15T13:51:40.423Z,64.99
2017-12-15T13:54:08.784Z,64.87
2017-12-15T13:56:37.214Z,66.60
2017-12-15T13:59:05.569Z,67.34
2017-12-15T14:01:33.944Z,68.19
2017-12-15T14:04:02.286Z,67.43
2017-12-15T14:06:30.633Z,67.68
2017-12-15T14:08:59.006Z,68.42
2017-12-15T14:11:27.365Z,69.84
2017-12-15T14:13:55.697Z,69.25
2017-12-15T14:16:24.062Z,69.36
2017-12-15T14:18:52.403Z,68.55
2017-12-15T14:21:20.782Z,70.81
2017-12-15T14:23:49.120Z,71.87
2017-12-15T14:26:17.469Z,71.75
2017-12-15T14:28:45.819Z,71.33
2017-12-15T14:31:14.167Z,71.31
2017-12-15T14:33:42.593Z,71.71
2017-12-15T14:36:10.936Z,73.04
2017-12-15T14:38:39.292Z,73.75
2017-12-15T14:41:07.635Z,72.65
2017-12-15T14:43:36.007Z,72.92
2017-12-15T14:46:04.406Z,72.59
2017-12-15T14:48:32.752Z,72.09
2017-12-15T14:51:01.228Z,72.08
2017-12-15T14:53:29.567Z,72.32
2017-12-15T14:55:57.949Z,72.40
2017-12-15T14:58:26.351Z,73.83
2017-12-15T15:00:54.694Z,74.11
2017-12-15T15:03:23.054Z,73.45
2017-12-15T15:05:51.399Z,73.34
2017-12-15T15:08:19.744Z,72.58
2017-12-15T15:10:48.290Z,73.18
2017-12-15T15:13:16.632Z,74.04
2017-12-15T15:15:44.983Z,77.01
2017-12-15T15:18:13.322Z,78.64
2017-12-15T15:20:41.665Z,77.98
2017-12-15T15:23:10.040Z,78.54
2017-12-15T15:25:38.382Z,78.20
2017-12-15T15:28:06.751Z,77.40
2017-12-15T15:30:35.091Z,77.50
2017-12-15T15:33:03.438Z,77.34
2017-12-15T15:35:31.920Z,77.62
2017-12-15T15:38:00.263Z,76.92
2017-12-15T15:40:28.601Z,77.68
2017-12-15T15:42:56.946Z,76.77
2017-12-15T15:45:25.312Z,77.42
2017-12-15T15:47:53.725Z,77.81
2017-12-15T15:50:22.054Z,78.71
2017-12-15T15:52:50.399Z,78.92
2017-12-15T15:55:18.812Z,77.95
2017-12-15T15:57:47.141Z,75.70
2017-12-15T16:00:15.535Z,75.61
2017-12-15T16:02:43.877Z,75.43
2017-12-15T16:05:12.230Z,75.11
2017-12-15T16:07:40.567Z,75.31
2017-12-15T16:10:08.915Z,75.95
2017-12-15T16:12:37.287Z,77.00
2017-12-15T16:15:05.631Z,76.53
2017-12-15T16:17:33.965Z,77.63
2017-12-15T16:20:02.366Z,76.25
2017-12-15T16:22:30.763Z,76.20
2017-12-15T16:24:59.135Z,76.22
2017-12-15T16:27:27.526Z,76.95
2017-12-15T16:29:56.019Z,76.55
2017-12-15T16:32:24.359Z,77.58
2017-12-15T16:34:52.719Z,77.93
2017-12-15T16:37:21.053Z,79.52
2017-12-15T16:39:49.419Z,78.77
2017-12-15T16:42:17.862Z,77.26
2017-12-15T16:44:46.203Z,76.15
2017-12-15T16:47:14.573Z,76.45
2017-12-15T16:49:42.928Z,76.19
2017-12-15T16:52:11.272Z,76.09
2017-12-15T16:54:39.828Z,76.31
2017-12-15T16:57:08.165Z,76.29
2017-12-15T16:59:36.514Z,74.90
2017-12-15T17:02:04.861Z,74.53
2017-12-15T17:04:33.226Z,74.48
2017-12-15T17:07:01.629Z,73.84
2017-12-15T17:09:29.991Z,73.97
2017-12-15T17:11:58.370Z,74.41
2017-12-15T17:14:26.723Z,76.26
2017-12-15T17:16:55.152Z,75.33
2017-12-15T17:19:23.473Z,74.57
2017-12-15T17:21:51.867Z,74.48
2017-12-15T17:24:20.197Z,74.85
2017-12-15T17:26:48.556Z,74.66
2017-12-15T17:29:16.925Z,75.61
2017-12-15T17:31:45.270Z,75.10
2017-12-15T17:34:13.630Z,74.55
2017-12-15T17:36:41.968Z,74.83
2017-12-15T17:39:10.295Z,77.07
2017-12-15T17:41:38.684Z,76.77
2017-12-15T17:44:07.031Z,76.71
2017-12-15T17:46:35.374Z,77.97
2017-12-15T17:49:03.746Z,75.97
2017-12-15T17:51:32.066Z,74.76
2017-12-15T17:54:00.454Z,75.42
2017-12-15T17:56:28.812Z,75.39
2017-12-15T17:58:57.187Z,76.71
2017-12-15T18:01:25.512Z,76.02
2017-12-15T18:03:53.865Z,75.89
2017-12-15T18:06:22.235Z,76.84
2017-12-15T18:08:50.610Z,76.54
2017-12-15T18:11:18.975Z,76.17
2017-12-15T18:13:47.319Z,75.28
2017-12-15T18:16:15.685Z,74.93
2017-12-15T18:18:44.060Z,75.70
2017-12-15T18:21:12.406Z,76.94
2017-12-15T18:23:40.756Z,76.65
2017-12-15T18:26:09.116Z,76.12
2017-12-15T18:28:37.467Z,77.69
2017-12-15T18:31:05.861Z,76.97
2017-12-15T18:33:34.203Z,76.71
2017-12-15T18:36:02.556Z,79.94
2017-12-15T18:38:30.893Z,80.11
2017-12-15T18:40:59.233Z,77.56
2017-12-15T18:43:27.690Z,76.59
2017-12-15T18:45:56.035Z,77.43
2017-12-15T18:48:24.386Z,76.52
2017-12-15T18:50:52.715Z,76.54
2017-12-15T18:53:21.066Z,77.53
2017-12-15T18:55:49.455Z,76.92
2017-12-15T18:58:17.795Z,76.49
2017-12-15T19:00:46.136Z,76.53
2017-12-15T19:03:14.519Z,76.22
2017-12-15T19:05:42.869Z,76.25
2017-12-15T19:08:11.263Z,76.16
2017-12-15T19:10:39.640Z,75.93
2017-12-15T19:13:07.989Z,76.16
2017-12-15T19:15:36.342Z,76.23
2017-12-15T19:18:04.706Z,76.33
2017-12-15T19:20:33.120Z,76.99
2017-12-15T19:23:01.535Z,75.61
2017-12-15T19:25:29.891Z,76.16
2017-12-15T19:27:58.357Z,77.24
2017-12-15T19:30:26.697Z,77.14
2017-12-15T19:32:55.066Z,76.63
2017-12-15T19:35:23.414Z,77.11
2017-12-15T19:37:51.751Z,76.66
2017-12-15T19:40:20.104Z,76.73
2017-12-15T19:42:48.455Z,77.94
2017-12-15T19:45:16.828Z,78.39
2017-12-15T19:47:45.181Z,77.25
2017-12-15T19:50:13.527Z,77.72
2017-12-15T19:52:41.864Z,78.48
2017-12-15T19:55:10.212Z,78.10
2017-12-15T19:57:38.662Z,78.71
2017-12-15T20:00:07.040Z,77.72
2017-12-15T20:02:35.409Z,77.01
2017-12-15T20:05:03.752Z,77.45
2017-12-15T20:07:32.087Z,77.67
2017-12-15T20:10:00.578Z,76.30
2017-12-15T20:12:28.911Z,75.11
2017-12-15T20:14:57.253Z,74.28
2017-12-15T20:17:25.598Z,74.14
2017-12-15T20:19:53.952Z,74.12
2017-12-15T20:22:22.344Z,74.94
2017-12-15T20:24:50.684Z,75.26
2017-12-15T20:27:19.052Z,75.55
2017-12-15T20:29:47.414Z,76.54
2017-12-15T20:32:15.796Z,75.70
2017-12-15T20:34:44.177Z,75.37
2017-12-15T20:37:12.572Z,76.76
2017-12-15T20:39:40.928Z,76.28
2017-12-15T20:42:09.274Z,76.29
2017-12-15T20:44:37.606Z,75.01
2017-12-15T20:47:06.002Z,75.00
2017-12-15T20:49:34.351Z,74.41
2017-12-15T20:52:02.707Z,73.94
2017-12-15T20:54:31.086Z,75.98
2017-12-15T20:56:59.434Z,75.32
2017-12-15T20:59:27.803Z,74.52
2017-12-15T21:01:56.151Z,76.45
2017-12-15T21:04:24.537Z,75.78
2017-12-15T21:06:52.878Z,76.01
2017-12-15T21:09:21.267Z,75.02
2017-12-15T21:11:49.641Z,76.40
2017-12-15T21:14:18.001Z,76.97
2017-12-15T21:16:46.332Z,75.96
2017-12-15T21:19:14.678Z,76.80
2017-12-15T21:21:43.036Z,75.86
2017-12-15T21:24:11.399Z,76.07
2017-12-15T21:26:39.806Z,76.03
2017-12-15T21:29:08.151Z,75.67
2017-12-15T21:31:36.504Z,76.34
2017-12-15T21:34:04.849Z,75.72
2017-12-15T21:36:33.231Z,76.73
2017-12-15T21:39:01.594Z,77.37
2017-12-15T21:41:29.954Z,76.57
2017-12-15T21:43:58.298Z,76.07
2017-12-15T21:46:26.721Z,76.97
2017-12-15T21:48:55.087Z,75.51
2017-12-15T21:51:23.422Z,75.23
2017-12-15T21:53:51.771Z,75.12
2017-12-15T21:56:20.188Z,75.02
2017-12-15T21:58:48.527Z,75.34
2017-12-15T22:01:16.907Z,74.61
2017-12-15T22:03:45.247Z,75.35
2017-12-15T22:06:13.665Z,75.21
2017-12-15T22:08:42.001Z,75.05
2017-12-15T22:11:10.359Z,74.76
2017-12-15T22:13:38.740Z,75.09
2017-12-15T22:16:07.082Z,74.97
2017-12-15T22:18:35.432Z,75.41
2017-12-15T22:21:03.777Z,75.30
2017-12-15T22:23:32.145Z,75.23
2017-12-15T22:26:00.518Z,74.75
2017-12-15T22:28:28.922Z,75.45
2017-12-15T22:30:57.317Z,75.86
2017-12-15T22:33:25.674Z,74.81
2017-12-15T22:35:54.008Z,75.01
2017-12-15T22:38:22.381Z,74.86
2017-12-15T22:40:50.767Z,76.71
2017-12-15T22:43:19.111Z,77.60
2017-12-15T22:45:47.463Z,76.51
2017-12-15T22:48:15.802Z,76.22
2017-12-15T22:50:44.182Z,76.00
2017-12-15T22:53:12.527Z,76.46
2017-12-15T22:55:40.890Z,75.89
2017-12-15T22:58:09.227Z,76.37
2017-12-15T23:00:37.565Z,75.91
2017-12-15T23:03:05.953Z,76.94
2017-12-15T23:05:34.322Z,76.93
2017-12-15T23:08:02.677Z,76.62
2017-12-15T23:10:31.018Z,75.87
2017-12-15T23:12:59.712Z,76.22
2017-12-15T23:15:28.104Z,75.30
2017-12-15T23:17:56.450Z,75.96
2017-12-15T23:20:24.781Z,76.00
2017-12-15T23:22:53.119Z,76.87
2017-12-15T23:25:21.462Z,76.28
2017-12-15T23:27:49.834Z,75.98
2017-12-15T23:30:18.171Z,75.84
2017-12-15T23:32:46.547Z,76.34
2017-12-15T23:35:14.884Z,76.38
2017-12-15T23:37:43.252Z,74.49
2017-12-15T23:40:11.617Z,74.12
2017-12-15T23:42:39.943Z,76.22
2017-12-15T23:45:08.381Z,75.79
2017-12-15T23:47:36.766Z,76.40
2017-12-15T23:50:05.113Z,76.30
2017-12-15T23:52:33.516Z,75.63
2017-12-15T23:55:13.535Z,76.58
2017-12-15T23:57:41.915Z,77.05
